Time;durP1;ratioP1;P1;durP2;ratioP2;P2;SDS_P1;SDS_P2;PMS_P1;PMS_P2;Temp;Humidity;BMP_temperature;BMP_pressure;BME280_temperature;BME280_humidity;BME280_pressure;Samples;Min_cycle;Max_cycle;Signal;HPM_P1;HPM_P2
2023/09/10 00:02:26;;;;;;;12.32;7.20;;;;;;;20.12;100.00;101430.81;6250291;28;20422;-71
2023/09/10 00:05:27;;;;;;;12.32;6.72;;;;;;;20.11;100.00;101429.97;6250104;28;20076;-71
2023/09/10 00:08:29;;;;;;;11.70;6.38;;;;;;;20.07;100.00;101433.84;6249978;28;20053;-71
2023/09/10 00:11:32;;;;;;;13.73;7.15;;;;;;;20.04;100.00;101434.13;6249912;28;20449;-71
2023/09/10 00:14:33;;;;;;;10.95;5.90;;;;;;;20.08;100.00;101432.91;6250268;28;20049;-71
2023/09/10 00:17:34;;;;;;;15.30;7.85;;;;;;;20.07;100.00;101431.19;6250018;28;20052;-72
2023/09/10 00:20:36;;;;;;;13.68;8.82;;;;;;;20.14;100.00;101435.06;6251881;28;20056;-71
2023/09/10 00:23:38;;;;;;;11.77;7.45;;;;;;;20.14;100.00;101429.72;6254720;28;20133;-71
2023/09/10 00:26:41;;;;;;;15.13;7.68;;;;;;;20.12;100.00;101425.47;6254848;28;20071;-71
2023/09/10 00:29:43;;;;;;;10.20;6.75;;;;;;;20.04;100.00;101434.13;6254294;28;20053;-71
2023/09/10 00:32:44;;;;;;;15.88;8.27;;;;;;;20.04;100.00;101427.94;6254679;28;20049;-71
2023/09/10 00:35:45;;;;;;;17.23;8.45;;;;;;;19.99;100.00;101429.16;6254520;28;20057;-72
2023/09/10 00:38:47;;;;;;;14.93;9.13;;;;;;;19.94;100.00;101433.16;6253999;28;20461;-72
2023/09/10 00:41:49;;;;;;;17.35;9.05;;;;;;;19.89;100.00;101430.88;6254794;28;20045;-73
2023/09/10 00:44:51;;;;;;;16.65;9.15;;;;;;;19.87;100.00;101434.66;6254095;28;20053;-73
2023/09/10 00:47:53;;;;;;;13.45;9.50;;;;;;;19.86;100.00;101433.81;6253410;28;20053;-71
2023/09/10 00:50:54;;;;;;;13.90;7.97;;;;;;;19.80;100.00;101430.78;6253586;28;20337;-71
2023/09/10 00:53:56;;;;;;;11.05;7.50;;;;;;;19.77;100.00;101435.41;6253964;28;20050;-72
2023/09/10 00:57:00;;;;;;;11.40;7.30;;;;;;;19.76;100.00;101432.88;6253869;28;20080;-74
2023/09/10 01:00:03;;;;;;;12.05;7.70;;;;;;;19.71;100.00;101435.03;6268324;22;20381;-74
2023/09/10 01:03:07;;;;;;;15.30;8.30;;;;;;;19.64;100.00;101440.03;6247366;28;20354;-74
2023/09/10 01:06:09;;;;;;;14.85;8.30;;;;;;;19.66;100.00;101443.41;6253431;28;20057;-74
2023/09/10 01:09:10;;;;;;;17.75;10.32;;;;;;;19.75;100.00;101447.16;6253198;28;20124;-74
2023/09/10 01:12:28;;;;;;;16.33;10.10;;;;;;;19.85;100.00;101440.13;6253286;28;20053;-74
2023/09/10 01:15:33;;;;;;;15.77;9.15;;;;;;;19.76;100.00;101457.72;6253697;28;20049;-74
2023/09/10 01:18:43;;;;;;;17.15;9.32;;;;;;;19.81;100.00;101445.84;6253185;28;20050;-74
2023/09/10 01:21:52;;;;;;;13.60;8.52;;;;;;;19.81;100.00;101448.50;6253467;28;20041;-74
2023/09/10 01:24:56;;;;;;;17.23;10.52;;;;;;;19.73;100.00;101454.44;6253301;28;20049;-74
2023/09/10 01:27:58;;;;;;;14.05;8.88;;;;;;;19.68;100.00;101457.47;6253027;28;20115;-74
2023/09/10 01:30:59;;;;;;;18.05;10.93;;;;;;;19.66;100.00;101446.06;6252518;28;20049;-74
2023/09/10 01:34:04;;;;;;;20.00;10.98;;;;;;;19.72;100.00;101452.75;6253239;28;20052;-74
2023/09/10 01:37:11;;;;;;;16.02;10.20;;;;;;;19.64;100.00;101455.19;6253036;28;20057;-74
2023/09/10 01:40:20;;;;;;;15.02;8.80;;;;;;;19.62;100.00;101463.31;6252840;28;20084;-74
2023/09/10 01:43:21;;;;;;;20.27;9.95;;;;;;;19.55;100.00;101462.06;6252981;28;20053;-74
2023/09/10 01:46:25;;;;;;;16.35;10.63;;;;;;;19.51;100.00;101458.78;6252803;28;20053;-74
2023/09/10 01:49:27;;;;;;;15.73;10.05;;;;;;;19.41;100.00;101465.84;6252391;28;20056;-74
2023/09/10 01:52:29;;;;;;;18.20;10.98;;;;;;;19.38;100.00;101463.41;6252764;28;20045;-74
2023/09/10 01:55:31;;;;;;;20.13;10.75;;;;;;;19.44;100.00;101470.06;6252580;28;20053;-74
2023/09/10 01:58:33;;;;;;;19.35;12.05;;;;;;;19.40;100.00;101457.97;6252437;28;20061;-74
2023/09/10 02:01:34;;;;;;;19.67;11.30;;;;;;;19.39;100.00;101466.91;6252218;28;20353;-74
2023/09/10 02:04:35;;;;;;;19.75;11.25;;;;;;;19.44;100.00;101465.59;6252549;28;20041;-74
2023/09/10 02:07:37;;;;;;;16.83;10.38;;;;;;;19.39;100.00;101464.25;6252356;28;20449;-74
2023/09/10 02:10:40;;;;;;;15.45;8.63;;;;;;;19.39;100.00;101470.41;6251727;28;20370;-74
2023/09/10 02:13:41;;;;;;;20.00;11.15;;;;;;;19.37;100.00;101476.84;6251778;28;20361;-74
2023/09/10 02:16:42;;;;;;;17.73;10.85;;;;;;;19.34;100.00;101474.44;6252279;28;20053;-74
2023/09/10 02:19:44;;;;;;;18.90;11.23;;;;;;;19.35;100.00;101476.13;6247063;28;20456;-74
2023/09/10 02:22:45;;;;;;;19.73;11.32;;;;;;;19.30;100.00;101472.97;6247440;28;20441;-74
2023/09/10 02:25:48;;;;;;;22.52;12.65;;;;;;;19.16;100.00;101471.38;6250462;28;20056;-73
2023/09/10 02:28:49;;;;;;;19.20;11.30;;;;;;;19.13;100.00;101468.97;6251502;28;20049;-73
2023/09/10 02:31:51;;;;;;;20.60;10.35;;;;;;;19.11;100.00;101476.22;6251367;28;20050;-74
2023/09/10 02:34:52;;;;;;;18.60;11.18;;;;;;;19.06;100.00;101475.75;6251522;28;20357;-74
2023/09/10 02:37:53;;;;;;;18.83;11.20;;;;;;;18.99;100.00;101473.56;6251331;28;20064;-74
2023/09/10 02:40:56;;;;;;;22.80;11.13;;;;;;;19.04;100.00;101478.53;6251499;28;20052;-74
2023/09/10 02:43:58;;;;;;;18.58;11.82;;;;;;;18.96;100.00;101481.78;6250520;28;20056;-74
2023/09/10 02:46:59;;;;;;;20.58;11.70;;;;;;;18.92;100.00;101480.31;6250908;28;20053;-74
2023/09/10 02:50:01;;;;;;;21.20;10.38;;;;;;;18.84;100.00;101480.03;6243885;28;20046;-74
2023/09/10 02:53:02;;;;;;;19.60;11.02;;;;;;;18.80;100.00;101475.06;6243344;28;20548;-74
2023/09/10 02:56:05;;;;;;;14.85;9.43;;;;;;;18.78;100.00;101472.53;6251154;28;20053;-73
2023/09/10 02:59:06;;;;;;;20.00;12.00;;;;;;;18.70;100.00;101477.59;6250680;28;20049;-74
2023/09/10 03:02:08;;;;;;;21.33;12.20;;;;;;;18.69;100.00;101474.06;6251057;28;20045;-74
2023/09/10 03:05:09;;;;;;;19.27;10.95;;;;;;;18.60;100.00;101473.91;6250940;28;20053;-74
2023/09/10 03:08:11;;;;;;;18.33;11.20;;;;;;;18.53;100.00;101476.19;6250851;28;20049;-74
2023/09/10 03:11:13;;;;;;;15.82;9.85;;;;;;;18.53;100.00;101478.84;6250768;28;20052;-74
2023/09/10 03:14:16;;;;;;;20.38;11.32;;;;;;;18.58;100.00;101479.34;6251052;28;20060;-74
2023/09/10 03:17:17;;;;;;;20.00;10.10;;;;;;;18.58;100.00;101479.34;6250690;28;20441;-74
2023/09/10 03:20:19;;;;;;;15.60;10.05;;;;;;;18.55;100.00;101476.06;6250581;28;20050;-74
2023/09/10 03:23:20;;;;;;;19.48;9.60;;;;;;;18.48;100.00;101475.66;6250727;28;20057;-75
2023/09/10 03:26:23;;;;;;;16.95;9.77;;;;;;;18.41;100.00;101480.59;6250908;28;20464;-75
2023/09/10 03:29:24;;;;;;;15.30;10.00;;;;;;;18.32;100.00;101473.31;6250419;28;20164;-74
2023/09/10 03:32:26;;;;;;;15.25;9.82;;;;;;;18.28;100.00;101471.84;6250506;28;20045;-74
2023/09/10 03:35:27;;;;;;;15.35;9.82;;;;;;;18.31;100.00;101473.44;6250683;28;20080;-74
2023/09/10 03:38:29;;;;;;;17.85;10.50;;;;;;;18.31;100.00;101473.44;6250197;28;20480;-74
2023/09/10 03:41:31;;;;;;;19.02;10.88;;;;;;;18.29;100.00;101470.88;6250611;28;20053;-75
2023/09/10 03:44:33;;;;;;;20.15;10.55;;;;;;;18.32;100.00;101473.31;6250438;28;20053;-73
2023/09/10 03:47:36;;;;;;;17.80;12.07;;;;;;;18.30;100.00;101477.03;6250632;28;20045;-73
2023/09/10 03:50:37;;;;;;;20.02;11.40;;;;;;;18.25;100.00;101472.91;6250052;28;20061;-74
2023/09/10 03:53:38;;;;;;;19.20;10.63;;;;;;;18.27;100.00;101471.97;6251003;28;20050;-74
2023/09/10 03:56:42;;;;;;;24.17;12.20;;;;;;;18.27;100.00;101479.94;6255331;28;20371;-74
2023/09/10 03:59:43;;;;;;;26.33;15.35;;;;;;;18.30;100.00;101477.88;6255055;28;20140;-74
2023/09/10 04:02:44;;;;;;;24.42;12.95;;;;;;;18.42;100.00;101479.63;6255359;28;20046;-73
2023/09/10 04:05:46;;;;;;;25.63;12.82;;;;;;;18.34;100.00;101482.00;6249999;28;20053;-74
2023/09/10 04:08:47;;;;;;;21.65;13.57;;;;;;;18.33;100.00;101474.16;6248492;28;20056;-74
2023/09/10 04:11:50;;;;;;;18.08;11.07;;;;;;;18.31;100.00;101476.09;6252617;28;20370;-73
2023/09/10 04:14:51;;;;;;;22.25;13.23;;;;;;;18.30;100.00;101477.03;6245925;28;20147;-74
2023/09/10 04:17:53;;;;;;;24.52;14.43;;;;;;;18.27;100.00;101472.81;6254584;28;20456;-75
2023/09/10 04:20:54;;;;;;;24.30;12.77;;;;;;;18.25;100.00;101472.91;6254821;28;20046;-75
2023/09/10 04:23:56;;;;;;;29.77;14.48;;;;;;;18.22;100.00;101480.28;6245527;28;20050;-75
2023/09/10 04:26:58;;;;;;;26.05;14.00;;;;;;;18.12;100.00;101477.44;6243225;28;20057;-74
2023/09/10 04:30:00;;;;;;;22.02;13.38;;;;;;;18.13;100.00;101489.78;6235136;28;20449;-74
2023/09/10 04:33:01;;;;;;;31.52;17.30;;;;;;;18.15;100.00;101492.31;6229907;28;20345;-75
2023/09/10 04:36:02;;;;;;;30.15;15.57;;;;;;;18.14;100.00;101495.94;6230142;28;20056;-74
2023/09/10 04:39:08;;;;;;;27.85;15.73;;;;;;;18.09;100.00;101496.28;6229421;28;20049;-74
2023/09/10 04:42:10;;;;;;;25.60;13.85;;;;;;;18.09;100.00;101495.44;6229989;28;20054;-75
2023/09/10 04:45:12;;;;;;;26.83;13.35;;;;;;;18.08;100.00;101496.41;6238448;28;20041;-74
2023/09/10 04:48:13;;;;;;;32.15;17.77;;;;;;;18.08;100.00;101507.06;6238815;28;20049;-74
2023/09/10 04:51:15;;;;;;;32.35;18.25;;;;;;;18.12;100.00;101511.16;6246263;28;20052;-74
2023/09/10 04:54:16;;;;;;;30.50;17.75;;;;;;;18.08;100.00;101512.38;6253290;28;20045;-74
2023/09/10 04:57:19;;;;;;;28.52;14.30;;;;;;;18.12;100.00;101513.81;6242103;28;20053;-74
2023/09/10 05:00:21;;;;;;;25.83;15.80;;;;;;;18.07;100.00;101508.84;6240615;28;20049;-75
2023/09/10 05:03:22;;;;;;;30.13;15.57;;;;;;;18.11;100.00;101509.47;6244801;28;20045;-75
2023/09/10 05:06:23;;;;;;;31.88;16.27;;;;;;;18.02;100.00;101518.13;6247352;28;20059;-75
2023/09/10 05:09:25;;;;;;;29.80;16.23;;;;;;;17.98;100.00;101520.97;6253505;28;20429;-75
2023/09/10 05:12:28;;;;;;;34.20;15.88;;;;;;;17.98;100.00;101522.78;6252519;28;20053;-77
2023/09/10 05:15:29;;;;;;;31.10;15.88;;;;;;;17.93;100.00;101524.94;6229058;28;20053;-75
2023/09/10 05:18:30;;;;;;;29.17;17.25;;;;;;;17.97;100.00;101521.09;6228578;28;20054;-75
2023/09/10 05:21:32;;;;;;;25.73;13.95;;;;;;;18.01;100.00;101527.91;6228917;28;20042;-75
2023/09/10 05:24:33;;;;;;;34.13;17.58;;;;;;;17.95;100.00;101523.88;6228801;28;20465;-75
2023/09/10 05:27:37;;;;;;;32.08;16.00;;;;;;;17.98;100.00;101517.47;6228624;28;20343;-75
2023/09/10 05:30:39;;;;;;;28.63;15.63;;;;;;;17.96;100.00;101512.28;6228341;28;20049;-75
2023/09/10 05:33:40;;;;;;;30.42;16.40;;;;;;;18.00;100.00;101516.41;6228689;28;20073;-75
2023/09/10 05:36:42;;;;;;;24.25;14.65;;;;;;;17.97;100.00;101529.09;6228484;28;20050;-75
2023/09/10 05:39:43;;;;;;;27.27;14.30;;;;;;;17.96;100.00;101524.72;6228003;28;20339;-75
2023/09/10 05:42:46;;;;;;;26.63;14.02;;;;;;;17.95;100.00;101525.69;6228400;28;20125;-75
2023/09/10 05:45:47;;;;;;;24.42;13.52;;;;;;;17.91;100.00;101522.41;6228192;28;20053;-75
2023/09/10 05:48:49;;;;;;;30.55;15.57;;;;;;;17.89;100.00;101534.94;6227956;28;20053;-75
2023/09/10 05:51:50;;;;;;;23.13;13.20;;;;;;;17.93;100.00;101533.75;6227816;28;20053;-75
2023/09/10 05:54:52;;;;;;;24.73;14.75;;;;;;;17.99;100.00;101532.50;6228190;28;20056;-75
2023/09/10 05:57:55;;;;;;;27.25;14.20;;;;;;;17.99;100.00;101536.00;6227563;28;20395;-75
2023/09/10 06:00:56;;;;;;;28.60;16.00;;;;;;;18.03;100.00;101538.41;6227781;28;20050;-75
2023/09/10 06:03:59;;;;;;;29.42;16.77;;;;;;;18.09;100.00;101543.31;6227803;28;20053;-75
2023/09/10 06:07:03;;;;;;;30.65;17.80;;;;;;;18.08;100.00;101542.47;6227970;28;20064;-76
2023/09/10 06:10:08;;;;;;;41.08;21.83;;;;;;;18.10;100.00;101539.69;6227290;28;20046;-75
2023/09/10 06:13:11;;;;;;;35.38;19.77;;;;;;;18.10;100.00;101545.84;6227756;28;20042;-75
2023/09/10 06:16:12;;;;;;;38.88;21.45;;;;;;;18.06;100.00;101547.03;6227548;28;20057;-75
2023/09/10 06:19:14;;;;;;;45.92;24.00;;;;;;;18.08;100.00;101545.13;6227253;28;20054;-75
2023/09/10 06:22:16;;;;;;;43.72;24.88;;;;;;;18.08;100.00;101546.94;6227515;28;20050;-75
2023/09/10 06:25:17;;;;;;;45.88;23.33;;;;;;;18.08;100.00;101550.47;6227218;28;20052;-75
2023/09/10 06:28:24;;;;;;;50.40;25.15;;;;;;;18.11;100.00;101533.41;6227113;28;20057;-75
2023/09/10 06:31:25;;;;;;;44.92;23.45;;;;;;;18.21;100.00;101545.94;6227073;28;20069;-75
2023/09/10 06:34:26;;;;;;;39.88;20.58;;;;;;;18.29;100.00;101547.19;6227232;28;20046;-75
2023/09/10 06:37:28;;;;;;;33.03;17.67;;;;;;;18.34;100.00;101553.00;6227086;28;20050;-75
2023/09/10 06:40:29;;;;;;;55.10;28.77;;;;;;;18.28;100.00;101554.31;6226794;28;20072;-75
2023/09/10 06:43:32;;;;;;;46.08;24.13;;;;;;;18.29;100.00;101549.84;6226893;28;20061;-76
2023/09/10 06:46:33;;;;;;;43.72;22.92;;;;;;;18.35;100.00;101555.59;6227020;28;20258;-75
2023/09/10 06:49:35;;;;;;;53.92;27.33;;;;;;;18.36;100.00;101553.78;6242766;28;20045;-75
2023/09/10 06:52:36;;;;;;;49.63;25.95;;;;;;;18.44;100.00;101546.94;6250926;28;20073;-75
2023/09/10 06:55:37;;;;;;;43.75;21.35;;;;;;;18.49;100.00;101557.22;6251072;28;20049;-75
2023/09/10 06:58:40;;;;;;;44.63;22.77;;;;;;;18.58;100.00;101553.03;6250542;28;20042;-75
2023/09/10 07:01:42;;;;;;;38.20;19.42;;;;;;;18.69;100.00;101563.75;6291678;22;20052;-73
2023/09/10 07:04:47;;;;;;;51.83;28.45;;;;;;;18.75;100.00;101572.13;6275817;28;20051;-73
2023/09/10 07:07:53;;;;;;;58.05;29.58;;;;;;;18.83;100.00;101565.41;6275599;28;20053;-73
2023/09/10 07:10:54;;;;;;;62.55;29.45;;;;;;;18.87;100.00;101569.53;6275498;28;20095;-73
2023/09/10 07:13:57;;;;;;;51.60;25.42;;;;;;;18.91;100.00;101565.69;6275471;28;20387;-73
2023/09/10 07:16:58;;;;;;;50.50;24.20;;;;;;;18.99;100.00;101571.28;6275526;28;20056;-77
2023/09/10 07:20:00;;;;;;;54.08;26.65;;;;;;;19.05;100.00;101575.28;6275207;28;20049;-77
2023/09/10 07:23:01;;;;;;;68.78;32.60;;;;;;;19.07;100.00;101576.00;6275440;28;20049;-76
2023/09/10 07:26:03;;;;;;;68.55;33.50;;;;;;;19.16;100.00;101578.81;6275439;28;20052;-77
2023/09/10 07:29:06;;;;;;;56.05;28.17;;;;;;;19.22;100.00;101581.03;6275116;28;20064;-76
2023/09/10 07:32:07;;;;;;;50.63;24.77;;;;;;;19.31;100.00;101579.47;6275348;28;20429;-76
2023/09/10 07:35:09;;;;;;;68.60;33.47;;;;;;;19.38;100.00;101577.19;6275250;28;20056;-77
2023/09/10 07:38:10;;;;;;;57.60;27.55;;;;;;;19.44;100.00;101582.03;6275001;28;20334;-76
2023/09/10 07:41:12;;;;;;;44.70;22.50;;;;;;;19.50;100.00;101574.41;6275080;28;20072;-76
2023/09/10 07:44:14;;;;;;;39.15;19.17;;;;;;;19.51;100.00;101572.59;6275317;28;20048;-77
2023/09/10 07:47:16;;;;;;;63.17;28.88;;;;;;;19.53;100.00;101578.66;6268845;28;20056;-77
2023/09/10 07:50:17;;;;;;;46.03;23.23;;;;;;;19.59;100.00;101578.19;6260373;28;20365;-74
2023/09/10 07:53:19;;;;;;;51.88;27.05;;;;;;;19.64;100.00;101581.38;6260883;28;20048;-73
2023/09/10 07:56:20;;;;;;;56.30;29.02;;;;;;;19.67;100.00;101585.63;6250247;28;20045;-73
2023/09/10 07:59:23;;;;;;;52.15;27.38;;;;;;;19.81;100.00;101588.06;6262974;28;20045;-72
2023/09/10 08:02:26;;;;;;;32.67;17.45;;;;;;;19.91;100.00;101598.84;6262532;28;20115;-77
2023/09/10 08:05:28;;;;;;;40.67;21.27;;;;;;;20.00;100.00;101592.78;6252750;28;20135;-77
2023/09/10 08:08:29;;;;;;;50.75;26.35;;;;;;;20.02;100.00;101598.81;6274550;28;20448;-77
2023/09/10 08:11:31;;;;;;;47.03;23.27;;;;;;;20.06;100.00;101596.75;6269727;28;20049;-77
2023/09/10 08:14:35;;;;;;;51.70;26.27;;;;;;;20.12;100.00;101597.16;6274606;28;20049;-78
2023/09/10 08:17:37;;;;;;;51.42;27.02;;;;;;;20.25;100.00;101600.50;6274698;28;20045;-78
2023/09/10 08:20:39;;;;;;;44.20;22.27;;;;;;;20.30;100.00;101593.94;6274118;28;20352;-77
2023/09/10 08:23:40;;;;;;;46.80;24.73;;;;;;;20.37;100.00;101596.00;6274517;28;20368;-77
2023/09/10 08:26:41;;;;;;;40.88;21.85;;;;;;;20.41;100.00;101592.09;6274821;28;20052;-76
2023/09/10 08:29:44;;;;;;;46.08;20.20;;;;;;;20.46;100.00;101587.25;6273978;28;20053;-78
2023/09/10 08:32:47;;;;;;;46.15;24.38;;;;;;;20.52;100.00;101592.09;6274700;28;20045;-77
2023/09/10 08:35:50;;;;;;;31.35;16.70;;;;;;;20.57;100.00;101594.38;6274495;28;20142;-77
2023/09/10 08:38:53;;;;;;;45.35;23.88;;;;;;;20.62;100.00;101584.22;6274452;28;20060;-77
2023/09/10 08:42:02;;;;;;;47.22;25.55;;;;;;;20.74;100.00;101595.69;6276313;28;20067;-76
2023/09/10 08:45:08;;;;;;;48.03;24.50;;;;;;;20.86;100.00;101586.66;6278179;28;20440;-77
2023/09/10 08:48:09;;;;;;;50.17;24.15;;;;;;;20.95;100.00;101590.38;6269750;28;20399;-77
2023/09/10 08:51:13;;;;;;;41.40;23.08;;;;;;;20.95;100.00;101590.38;6278491;28;20049;-77
2023/09/10 08:54:15;;;;;;;29.40;15.75;;;;;;;21.02;100.00;101586.22;6278638;28;20041;-76
2023/09/10 08:57:17;;;;;;;32.85;18.67;;;;;;;21.10;100.00;101589.09;6278709;28;20362;-78
2023/09/10 09:00:22;;;;;;;35.95;16.83;;;;;;;21.21;100.00;101594.38;6278259;28;20459;-77
2023/09/10 09:03:24;;;;;;;22.85;13.57;;;;;;;21.21;100.00;101591.72;6278647;28;20372;-77
2023/09/10 09:06:30;;;;;;;19.10;10.25;;;;;;;21.35;100.00;101590.56;6278676;28;20045;-76
2023/09/10 09:09:39;;;;;;;15.82;10.40;;;;;;;21.38;100.00;101589.44;6278092;28;20057;-75
2023/09/10 09:12:42;;;;;;;17.85;9.63;;;;;;;21.45;100.00;101591.47;6278457;28;20056;-76
2023/09/10 09:15:45;;;;;;;18.10;10.70;;;;;;;21.58;100.00;101590.44;6278128;28;20049;-76
2023/09/10 09:18:48;;;;;;;17.80;9.88;;;;;;;21.66;100.00;101590.59;6278034;28;20049;-75
2023/09/10 09:21:51;;;;;;;14.32;8.02;;;;;;;21.60;100.00;101586.63;6277883;28;20053;-75
2023/09/10 09:24:52;;;;;;;14.15;7.90;;;;;;;21.67;100.00;101585.13;6270720;28;20048;-75
2023/09/10 09:27:57;;;;;;;13.70;7.38;;;;;;;21.78;100.00;101587.69;6262868;28;20049;-75
2023/09/10 09:31:00;;;;;;;11.00;6.60;;;;;;;21.87;100.00;101587.88;6262769;28;20045;-71
2023/09/10 09:34:02;;;;;;;9.13;6.75;;;;;;;21.88;100.00;101587.72;6258434;28;20056;-72
2023/09/10 09:37:03;;;;;;;12.23;6.93;;;;;;;21.90;100.00;101590.28;6267836;28;20057;-72
2023/09/10 09:40:09;;;;;;;8.07;5.03;;;;;;;21.90;100.00;101590.28;6270831;28;20072;-72
2023/09/10 09:43:11;;;;;;;9.85;6.25;;;;;;;22.07;100.00;101584.28;6253171;28;20148;-72
2023/09/10 09:46:14;;;;;;;10.32;5.28;;;;;;;22.10;100.00;101589.38;6273784;28;20057;-74
2023/09/10 09:49:16;;;;;;;7.93;4.93;;;;;;;22.13;100.00;101580.25;6277171;28;20060;-74
2023/09/10 09:52:18;;;;;;;9.98;6.13;;;;;;;22.16;100.00;101579.97;6276942;28;20072;-73
2023/09/10 09:55:20;;;;;;;7.68;4.68;;;;;;;22.22;100.00;101580.28;6277155;28;20049;-73
2023/09/10 09:58:21;;;;;;;7.15;5.25;;;;;;;22.39;100.00;101576.09;6277176;28;20045;-73
2023/09/10 10:01:24;;;;;;;11.27;5.57;;;;;;;22.49;100.00;101576.94;6276743;28;20052;-72
2023/09/10 10:04:26;;;;;;;6.70;4.53;;;;;;;22.56;100.00;101573.69;6261109;28;20038;-72
2023/09/10 10:07:28;;;;;;;7.80;5.18;;;;;;;22.69;100.00;101567.09;6269066;28;20045;-72
2023/09/10 10:10:30;;;;;;;11.93;5.82;;;;;;;22.86;100.00;101570.06;6267188;28;20060;-71
2023/09/10 10:13:33;;;;;;;9.68;5.70;;;;;;;22.81;100.00;101559.75;6275845;28;20060;-72
2023/09/10 10:16:37;;;;;;;8.90;5.03;;;;;;;22.84;100.00;101562.13;6276799;28;20048;-72
2023/09/10 10:19:39;;;;;;;6.13;4.05;;;;;;;22.82;100.00;101560.59;6276148;28;20126;-72
2023/09/10 10:22:41;;;;;;;9.00;4.00;;;;;;;22.94;100.00;101557.66;6276750;28;20050;-72
2023/09/10 10:25:44;;;;;;;7.95;5.18;;;;;;;23.05;100.00;101559.34;6275379;28;20048;-71
2023/09/10 10:28:49;;;;;;;7.75;4.60;;;;;;;23.19;100.00;101550.84;6275465;28;20053;-72
2023/09/10 10:32:00;;;;;;;8.63;4.72;;;;;;;23.35;100.00;101552.94;6276306;28;20045;-72
2023/09/10 10:35:03;;;;;;;10.05;5.35;;;;;;;23.44;100.00;101551.22;6276337;28;20045;-72
2023/09/10 10:38:09;;;;;;;5.68;4.43;;;;;;;23.48;100.00;101549.91;6275783;28;20348;-72
2023/09/10 10:41:13;;;;;;;6.18;3.60;;;;;;;23.52;100.00;101548.63;6262040;28;20060;-72
2023/09/10 10:44:21;;;;;;;7.63;4.70;;;;;;;23.54;100.00;101544.81;6276053;28;20056;-72
2023/09/10 10:47:25;;;;;;;8.23;5.65;;;;;;;23.69;100.00;101547.91;6268054;28;20064;-71
2023/09/10 10:50:29;;;;;;;8.93;5.82;;;;;;;23.70;100.00;101544.22;6272239;28;20053;-72
2023/09/10 10:53:33;;;;;;;8.07;5.88;;;;;;;23.77;100.00;101545.31;6275075;28;20048;-71
2023/09/10 10:56:35;;;;;;;5.45;4.15;;;;;;;23.82;100.00;101544.03;6273915;28;20128;-72
2023/09/10 10:59:38;;;;;;;8.32;5.10;;;;;;;23.85;100.00;101539.22;6272981;28;21431;-71
2023/09/10 11:02:41;;;;;;;6.25;4.28;;;;;;;23.94;100.00;101535.66;6274170;28;20041;-72
2023/09/10 11:06:06;;;;;;;7.65;3.75;;;;;;;24.04;100.00;101538.28;6274244;28;20041;-71
2023/09/10 11:09:34;;;;;;;5.00;3.75;;;;;;;24.26;100.00;101535.16;6275456;28;20056;-70
2023/09/10 11:12:36;;;;;;;;;;;;;;;24.44;100.00;101531.69;6276001;28;20045;-71
2023/09/10 11:16:16;;;;;;;5.75;3.40;;;;;;;24.48;100.00;101522.28;6275486;28;19995;-71
2023/09/10 11:19:44;;;;;;;8.95;3.90;;;;;;;24.55;100.00;101523.38;6250555;28;20523;-71
2023/09/10 11:23:09;;;;;;;5.75;3.72;;;;;;;24.61;100.00;101521.91;6250660;28;20136;-71
2023/09/10 11:26:36;;;;;;;6.32;3.65;;;;;;;24.73;100.00;101516.16;6262402;28;20053;-71
2023/09/10 11:29:37;;;;;;;16.70;3.90;;;;;;;24.85;100.00;101519.44;6239560;28;20472;-73
2023/09/10 11:32:38;;;;;;;4.63;3.28;;;;;;;24.98;100.00;101522.56;6262385;28;20056;-76
2023/09/10 11:35:51;;;;;;;3.78;2.67;;;;;;;25.11;100.00;101516.78;6261586;28;20044;-75
2023/09/10 11:38:55;;;;;;;4.43;2.80;;;;;;;25.29;100.00;101514.03;6272512;28;20056;-78
2023/09/10 11:41:58;;;;;;;5.28;3.28;;;;;;;25.51;100.00;101513.50;6266240;28;20051;-71
2023/09/10 11:44:59;;;;;;;4.53;3.45;;;;;;;25.54;100.00;101509.66;6273690;28;20479;-72
2023/09/10 11:48:01;;;;;;;3.70;2.65;;;;;;;25.71;100.00;101513.28;6273920;28;20052;-71
2023/09/10 11:51:04;;;;;;;4.93;3.42;;;;;;;25.91;100.00;101506.63;6274292;28;20052;-71
2023/09/10 11:54:06;;;;;;;6.53;3.22;;;;;;;26.12;100.00;101500.81;6273090;28;20045;-71
2023/09/10 11:57:08;;;;;;;6.80;3.88;;;;;;;26.40;100.00;101505.91;6274481;28;20049;-71
2023/09/10 12:00:13;;;;;;;4.47;3.33;;;;;;;26.57;100.00;101504.91;6274502;28;20334;-70
2023/09/10 12:03:14;;;;;;;3.97;2.83;;;;;;;26.84;100.00;101508.28;6275270;28;20064;-71
2023/09/10 12:06:17;;;;;;;4.03;2.63;;;;;;;27.00;100.00;101500.19;6275009;28;20053;-71
2023/09/10 12:09:19;;;;;;;5.05;2.72;;;;;;;27.04;100.00;101499.66;6274857;28;20049;-72
2023/09/10 12:12:28;;;;;;;5.05;3.17;;;;;;;27.22;100.00;101499.50;6274874;28;20056;-72
2023/09/10 12:15:31;;;;;;;3.85;2.72;;;;;;;27.33;100.00;101500.13;6276907;28;20049;-73
2023/09/10 12:18:33;;;;;;;4.85;3.40;;;;;;;27.33;100.00;101494.75;6279448;28;20060;-72
2023/09/10 12:21:36;;;;;;;6.50;3.30;;;;;;;27.36;100.00;101502.50;6279556;28;20361;-71
2023/09/10 12:24:39;;;;;;;7.75;3.75;;;;;;;27.62;100.00;101494.16;6279601;28;20044;-71
2023/09/10 12:27:40;;;;;;;5.15;2.97;;;;;;;27.64;100.00;101492.94;6279673;28;20060;-71
2023/09/10 12:30:41;;;;;;;4.38;3.05;;;;;;;27.56;100.00;101499.19;6279213;28;20056;-71
2023/09/10 12:33:43;;;;;;;6.82;2.63;;;;;;;27.75;100.00;101491.72;6279200;28;20055;-71
2023/09/10 12:36:46;;;;;;;4.13;2.92;;;;;;;27.68;100.00;101494.28;6279423;28;20162;-71
2023/09/10 12:39:47;;;;;;;5.35;3.15;;;;;;;27.88;100.00;101491.16;6278855;28;20053;-71
2023/09/10 12:42:50;;;;;;;5.65;2.92;;;;;;;28.16;100.00;101495.06;6279269;28;20049;-70
2023/09/10 12:45:51;;;;;;;4.50;3.22;;;;;;;28.33;100.00;101502.03;6279068;28;20124;-70
2023/09/10 12:48:53;;;;;;;4.05;3.08;;;;;;;27.81;99.23;101499.97;6278847;28;20388;-71
2023/09/10 12:51:56;;;;;;;6.05;2.47;;;;;;;28.25;100.00;101485.00;6278842;28;20049;-71
2023/09/10 12:54:57;;;;;;;3.45;2.33;;;;;;;28.56;99.36;101487.69;6278977;28;20041;-71
2023/09/10 12:57:59;;;;;;;5.30;2.50;;;;;;;28.67;99.27;101481.84;6278298;28;20349;-71
2023/09/10 13:01:00;;;;;;;5.63;2.40;;;;;;;28.79;100.00;101490.34;6290840;22;20046;-69
2023/09/10 13:04:02;;;;;;;3.85;2.28;;;;;;;28.91;95.63;101482.66;6253767;28;20045;-70
2023/09/10 13:07:04;;;;;;;5.35;2.58;;;;;;;28.93;94.99;101488.69;6254191;28;20053;-70
2023/09/10 13:10:07;;;;;;;4.85;2.60;;;;;;;28.79;94.44;101477.66;6253384;28;20049;-70
2023/09/10 13:13:08;;;;;;;3.35;2.17;;;;;;;28.47;92.13;101477.94;6253646;28;20057;-71
2023/09/10 13:16:10;;;;;;;3.78;2.22;;;;;;;28.91;93.40;101478.06;6253692;28;20056;-70
2023/09/10 13:19:11;;;;;;;6.10;2.85;;;;;;;29.11;93.42;101477.56;6253211;28;20045;-70
2023/09/10 13:22:14;;;;;;;3.33;2.25;;;;;;;29.24;89.88;101472.34;6253419;28;20350;-71
2023/09/10 13:25:15;;;;;;;5.80;2.47;;;;;;;29.28;91.33;101470.94;6253321;28;20041;-70
2023/09/10 13:28:17;;;;;;;3.30;1.92;;;;;;;28.91;90.62;101469.94;6252311;28;20351;-70
2023/09/10 13:31:18;;;;;;;5.55;2.53;;;;;;;28.77;90.88;101463.50;6253147;28;20107;-71
2023/09/10 13:34:20;;;;;;;7.10;2.53;;;;;;;28.97;87.85;101462.97;6253321;28;20045;-71
2023/09/10 13:37:22;;;;;;;5.38;3.05;;;;;;;29.07;82.13;101471.69;6253177;28;20056;-71
2023/09/10 13:40:25;;;;;;;8.82;2.80;;;;;;;29.16;77.96;101465.16;6252661;28;20046;-72
2023/09/10 13:43:26;;;;;;;4.60;1.95;;;;;;;29.32;72.72;101459.53;6253118;28;20049;-72
2023/09/10 13:46:28;;;;;;;5.30;2.42;;;;;;;29.46;63.28;101465.13;6252868;28;20330;-72
2023/09/10 13:49:29;;;;;;;4.28;2.33;;;;;;;29.55;63.00;101462.16;6252703;28;20064;-71